Time;durP1;ratioP1;P1;durP2;ratioP2;P2;SDS_P1;SDS_P2;PMS_P1;PMS_P2;Temp;Humidity;BMP_temperature;BMP_pressure;BME280_temperature;BME280_humidity;BME280_pressure;Samples;Min_cycle;Max_cycle;Signal;HPM_P1;HPM_P2
2021/11/01 00:01:57;;;;;;;16.08;2.55;;;;;;;10.04;100.00;99726.44;5011866;28;20449;-75
2021/11/01 00:04:22;;;;;;;27.20;3.13;;;;;;;9.99;100.00;99722.91;5011105;28;20085;-75
2021/11/01 00:06:48;;;;;;;25.40;2.67;;;;;;;10.00;100.00;99724.69;5010548;28;20022;-76
2021/11/01 00:09:13;;;;;;;14.95;2.60;;;;;;;10.02;100.00;99729.94;5010585;28;20461;-76
2021/11/01 00:11:39;;;;;;;22.30;2.80;;;;;;;10.00;100.00;99740.44;5008726;28;20030;-76
2021/11/01 00:14:04;;;;;;;18.20;3.00;;;;;;;9.99;100.00;99717.66;5009454;28;20076;-76
2021/11/01 00:16:29;;;;;;;20.70;3.30;;;;;;;9.94;100.00;99724.66;5012223;28;20018;-77
2021/11/01 00:18:55;;;;;;;18.40;3.15;;;;;;;9.96;100.00;99730.81;5016407;28;20042;-76
2021/11/01 00:21:24;;;;;;;19.10;3.00;;;;;;;9.95;100.00;99724.66;5014143;28;20557;-76
2021/11/01 00:23:50;;;;;;;20.95;3.00;;;;;;;9.90;100.00;99723.81;5011458;28;20128;-76
2021/11/01 00:26:16;;;;;;;20.48;2.90;;;;;;;9.92;100.00;99721.19;5006395;28;20034;-76
2021/11/01 00:28:44;;;;;;;13.07;2.25;;;;;;;9.91;100.00;99724.66;5008938;28;20039;-77
2021/11/01 00:31:10;;;;;;;21.90;2.78;;;;;;;9.91;100.00;99729.94;5015643;28;20397;-76
2021/11/01 00:33:35;;;;;;;21.17;2.78;;;;;;;9.86;100.00;99726.41;5010920;28;20042;-75
2021/11/01 00:36:00;;;;;;;15.30;2.45;;;;;;;9.87;100.00;99726.41;5009181;28;20046;-75
2021/11/01 00:38:25;;;;;;;23.05;2.60;;;;;;;9.84;100.00;99717.66;5010135;28;20494;-76
2021/11/01 00:40:51;;;;;;;10.82;2.60;;;;;;;9.82;99.87;99729.91;5011614;28;20037;-75
2021/11/01 00:43:16;;;;;;;18.13;2.70;;;;;;;9.85;99.67;99720.28;5010026;28;20024;-77
2021/11/01 00:45:42;;;;;;;13.95;2.38;;;;;;;9.86;99.72;99726.41;4993312;28;20037;-76
2021/11/01 00:48:07;;;;;;;14.35;1.83;;;;;;;9.84;98.93;99722.91;5009178;28;20382;-75
2021/11/01 00:50:34;;;;;;;14.65;2.67;;;;;;;9.82;99.25;99719.41;5010082;28;20026;-77
2021/11/01 00:53:00;;;;;;;15.25;3.53;;;;;;;9.83;99.35;99716.78;5012101;28;20022;-76
2021/11/01 00:55:34;;;;;;;18.58;2.40;;;;;;;9.83;98.83;99705.41;5011176;28;20040;-76
2021/11/01 00:58:00;;;;;;;8.98;2.05;;;;;;;9.82;98.79;99708.88;5009704;28;20076;-75
2021/11/01 01:00:26;;;;;;;13.07;2.78;;;;;;;9.77;97.89;99715.00;5012788;28;20378;-77
2021/11/01 01:02:52;;;;;;;17.80;3.05;;;;;;;9.80;97.59;99706.25;5013667;28;20026;-75
2021/11/01 01:05:18;;;;;;;16.20;2.90;;;;;;;9.86;97.40;99706.28;5014730;28;20030;-75
2021/11/01 01:07:43;;;;;;;9.85;2.03;;;;;;;9.84;96.66;99700.13;5016107;28;20060;-76
2021/11/01 01:10:09;;;;;;;12.70;2.10;;;;;;;9.83;97.02;99697.50;5013318;28;20105;-76
2021/11/01 01:12:34;;;;;;;14.27;1.85;;;;;;;9.79;97.20;99694.00;5015706;28;20478;-76
2021/11/01 01:15:03;;;;;;;12.32;2.55;;;;;;;9.82;97.32;99690.50;5015595;28;20470;-75
2021/11/01 01:17:30;;;;;;;13.23;2.15;;;;;;;9.79;96.68;99691.38;5008183;28;20084;-75
2021/11/01 01:20:04;;;;;;;13.48;2.58;;;;;;;9.74;97.27;99686.13;5009322;28;20152;-75
2021/11/01 01:22:31;;;;;;;13.60;2.20;;;;;;;9.77;96.65;99686.13;5012450;28;20034;-76
2021/11/01 01:25:18;;;;;;;11.20;1.98;;;;;;;9.72;96.50;99679.97;5010803;28;20080;-76
2021/11/01 01:27:44;;;;;;;8.50;2.03;;;;;;;9.71;96.66;99675.63;5010350;28;20414;-77
2021/11/01 01:30:11;;;;;;;15.45;3.15;;;;;;;9.71;96.15;99674.72;5014555;28;20038;-76
2021/11/01 01:32:37;;;;;;;16.25;2.75;;;;;;;9.71;96.43;99675.63;5012846;28;20052;-76
2021/11/01 01:35:03;;;;;;;10.27;1.52;;;;;;;9.69;96.55;99656.34;5013705;28;20104;-76
2021/11/01 01:37:29;;;;;;;14.35;2.42;;;;;;;9.65;96.28;99651.97;5013852;28;20121;-76
2021/11/01 01:39:54;;;;;;;8.40;2.00;;;;;;;9.66;96.06;99651.09;5014831;28;20025;-75
2021/11/01 01:42:19;;;;;;;17.50;2.17;;;;;;;9.61;96.44;99650.22;5015545;28;20057;-74
2021/11/01 01:44:45;;;;;;;14.77;2.53;;;;;;;9.62;96.36;99665.97;5014365;28;20112;-76
2021/11/01 01:47:10;;;;;;;14.38;2.08;;;;;;;9.61;96.29;99635.31;5011657;28;20033;-77
2021/11/01 01:49:36;;;;;;;13.20;2.38;;;;;;;9.57;96.34;99651.06;5013538;28;20030;-74
2021/11/01 01:52:02;;;;;;;12.07;1.75;;;;;;;9.57;96.43;99651.06;5014543;28;20037;-75
2021/11/01 01:54:27;;;;;;;12.77;2.25;;;;;;;9.56;95.94;99654.56;5013537;28;20351;-76
2021/11/01 01:56:53;;;;;;;13.68;3.10;;;;;;;9.57;96.29;99653.69;5010093;28;20080;-75
2021/11/01 01:59:19;;;;;;;7.55;1.63;;;;;;;9.59;95.75;99639.69;5025840;28;20081;-76
2021/11/01 02:01:46;;;;;;;12.73;1.77;;;;;;;9.58;96.26;99655.47;5013817;28;20033;-78
2021/11/01 02:04:18;;;;;;;19.83;1.98;;;;;;;9.54;95.98;99643.19;5013205;28;20033;-77
2021/11/01 02:07:07;;;;;;;7.78;2.47;;;;;;;9.53;95.76;99628.31;5013228;28;20037;-76
2021/11/01 02:09:45;;;;;;;14.73;2.13;;;;;;;9.53;95.67;99644.94;5013119;28;20508;-77
2021/11/01 02:12:16;;;;;;;17.35;2.10;;;;;;;9.57;95.88;99645.81;5011921;28;20488;-77
2021/11/01 02:14:48;;;;;;;12.52;2.28;;;;;;;9.51;95.70;99646.69;5013845;28;20116;-77
2021/11/01 02:17:20;;;;;;;7.90;1.80;;;;;;;9.54;95.70;99646.69;5012194;28;20025;-76
2021/11/01 02:19:47;;;;;;;7.95;1.77;;;;;;;9.52;95.61;99637.94;5010134;28;20064;-76
2021/11/01 02:22:16;;;;;;;12.93;1.45;;;;;;;9.53;95.35;99633.56;5012877;28;20466;-77
2021/11/01 02:25:07;;;;;;;9.82;2.15;;;;;;;9.57;95.72;99651.06;5013591;28;20038;-76
2021/11/01 02:27:36;;;;;;;12.90;1.98;;;;;;;9.58;95.63;99668.59;5013459;28;20050;-76
2021/11/01 02:30:05;;;;;;;8.52;1.67;;;;;;;9.57;95.68;99656.31;5012469;28;20029;-76
2021/11/01 02:32:31;;;;;;;16.67;2.33;;;;;;;9.59;94.77;99652.84;5013899;28;20037;-76
2021/11/01 02:34:56;;;;;;;12.90;1.83;;;;;;;9.57;94.81;99651.06;5014482;28;20030;-76
2021/11/01 02:37:22;;;;;;;8.07;1.58;;;;;;;9.59;95.09;99657.19;5013411;28;20417;-76
2021/11/01 02:39:51;;;;;;;10.63;1.55;;;;;;;9.60;94.88;99656.31;5013965;28;20026;-76
2021/11/01 02:42:18;;;;;;;7.30;1.63;;;;;;;9.57;94.83;99651.94;5009311;28;20551;-75
2021/11/01 02:45:12;;;;;;;12.10;2.00;;;;;;;9.59;94.80;99654.56;5013174;28;20018;-76
2021/11/01 02:47:39;;;;;;;10.35;1.40;;;;;;;9.57;95.13;99662.44;5015562;28;20042;-77
2021/11/01 02:50:10;;;;;;;14.35;1.60;;;;;;;9.57;95.27;99653.69;5011362;28;20053;-77
2021/11/01 02:52:36;;;;;;;9.18;1.73;;;;;;;9.58;95.29;99663.34;5009728;28;20073;-76
2021/11/01 02:55:06;;;;;;;12.85;2.33;;;;;;;9.61;94.96;99655.47;5012906;28;20492;-75
2021/11/01 02:57:32;;;;;;;11.00;2.20;;;;;;;9.70;94.26;99655.47;5009876;28;20052;-74
2021/11/01 02:59:58;;;;;;;9.27;1.40;;;;;;;9.72;93.88;99656.34;5012658;28;20062;-75
2021/11/01 03:02:24;;;;;;;9.82;1.60;;;;;;;9.76;93.84;99663.34;5013036;28;20038;-76
2021/11/01 03:04:49;;;;;;;12.52;2.92;;;;;;;9.76;93.84;99662.47;5013004;28;20030;-77
2021/11/01 03:07:17;;;;;;;8.63;1.60;;;;;;;9.74;94.00;99658.97;5013688;28;20045;-76
2021/11/01 03:09:47;;;;;;;8.40;1.80;;;;;;;9.72;94.07;99661.59;5011892;28;20025;-76
2021/11/01 03:12:17;;;;;;;8.43;2.17;;;;;;;9.76;93.54;99668.59;5009861;28;20363;-77
2021/11/01 03:14:48;;;;;;;7.72;1.85;;;;;;;9.77;93.70;99672.13;5024136;28;20152;-77
2021/11/01 03:17:18;;;;;;;5.57;1.70;;;;;;;9.72;93.32;99666.84;5012872;28;20064;-76
2021/11/01 03:19:49;;;;;;;10.40;1.60;;;;;;;9.68;93.96;99672.09;5011491;28;20022;-76
2021/11/01 03:22:15;;;;;;;12.25;1.90;;;;;;;9.69;93.30;99666.84;5012142;28;20095;-76
2021/11/01 03:24:45;;;;;;;8.80;1.75;;;;;;;9.66;93.50;99656.34;5012058;28;20033;-76
2021/11/01 03:27:14;;;;;;;6.28;1.70;;;;;;;9.70;93.77;99657.19;5009665;28;20056;-77
2021/11/01 03:29:41;;;;;;;18.75;2.90;;;;;;;9.71;94.03;99653.72;5013356;28;20030;-76
2021/11/01 03:32:09;;;;;;;9.98;1.77;;;;;;;9.67;94.54;99652.84;5010362;28;20030;-75
2021/11/01 03:34:34;;;;;;;14.85;1.70;;;;;;;9.62;94.56;99659.84;5012426;28;20014;-75
2021/11/01 03:37:09;;;;;;;8.05;2.50;;;;;;;9.59;94.85;99655.47;5012757;28;20552;-76
2021/11/01 03:39:37;;;;;;;6.60;1.60;;;;;;;9.51;95.37;99651.06;5009438;28;20600;-75
2021/11/01 03:42:04;;;;;;;8.82;1.92;;;;;;;9.49;96.03;99658.94;5027120;28;20057;-75
2021/11/01 03:44:32;;;;;;;12.15;2.35;;;;;;;9.51;95.42;99664.19;5009140;28;20449;-76
2021/11/01 03:47:00;;;;;;;13.70;1.85;;;;;;;9.52;95.21;99652.81;5011649;28;20029;-78
2021/11/01 03:49:28;;;;;;;12.88;2.15;;;;;;;9.48;95.40;99648.44;5011712;28;20466;-77
2021/11/01 03:52:10;;;;;;;10.70;2.10;;;;;;;9.45;95.49;99657.19;5012173;28;20030;-77
2021/11/01 03:54:37;;;;;;;10.68;2.53;;;;;;;9.45;95.90;99655.44;5015984;28;20386;-77
2021/11/01 03:57:05;;;;;;;13.80;1.80;;;;;;;9.43;96.19;99654.56;5010954;28;20069;-76
2021/11/01 03:59:32;;;;;;;13.63;2.05;;;;;;;9.39;96.56;99652.78;5011091;28;20040;-75
2021/11/01 04:01:57;;;;;;;12.43;1.65;;;;;;;9.39;96.53;99647.53;5011057;28;20080;-76
2021/11/01 04:04:23;;;;;;;18.20;2.20;;;;;;;9.39;96.78;99644.91;5008364;28;20493;-76
2021/11/01 04:06:48;;;;;;;12.52;2.70;;;;;;;9.29;96.90;99648.38;5011486;28;21579;-76
2021/11/01 04:09:16;;;;;;;8.90;1.67;;;;;;;9.31;97.44;99657.16;5013985;28;20083;-76
2021/11/01 04:11:43;;;;;;;14.10;2.78;;;;;;;9.34;97.19;99658.91;5004020;28;20029;-76
2021/11/01 04:14:16;;;;;;;14.65;2.28;;;;;;;9.30;97.58;99651.91;5011313;28;20081;-77
2021/11/01 04:16:45;;;;;;;14.23;1.98;;;;;;;9.29;97.70;99648.38;5012576;28;20088;-76
2021/11/01 04:21:35;;;;;;;11.75;1.92;;;;;;;9.27;97.64;99650.16;5012832;28;20096;-76
2021/11/01 04:24:01;;;;;;;10.68;2.17;;;;;;;9.33;97.87;99646.66;5010946;28;20030;-76
2021/11/01 04:26:27;;;;;;;18.92;2.60;;;;;;;9.36;97.46;99642.28;5012645;28;20026;-77
2021/11/01 04:28:53;;;;;;;9.43;1.90;;;;;;;9.37;97.29;99636.19;5011460;28;20560;-77
2021/11/01 04:31:25;;;;;;;10.68;3.03;;;;;;;9.35;97.51;99635.28;5011642;28;20227;-77
2021/11/01 04:33:52;;;;;;;10.48;1.88;;;;;;;9.40;97.10;99641.44;5009974;28;20038;-77
2021/11/01 04:36:18;;;;;;;15.32;2.13;;;;;;;9.42;96.97;99647.53;5013236;28;20026;-77
2021/11/01 04:41:38;;;;;;;12.40;2.05;;;;;;;9.44;97.06;99652.78;5015654;28;20076;-76
2021/11/01 04:54:49;;;;;;;10.85;1.77;;;;;;;9.41;96.81;99674.69;5012990;28;20108;-76
2021/11/01 04:57:14;;;;;;;11.45;1.88;;;;;;;9.43;96.59;99658.94;5013957;28;20422;-75
2021/11/01 04:59:40;;;;;;;12.43;3.15;;;;;;;9.45;96.63;99667.69;5014844;28;20025;-76
2021/11/01 05:02:05;;;;;;;11.63;2.40;;;;;;;9.45;96.19;99658.06;5014261;28;20048;-76
2021/11/01 05:04:36;;;;;;;14.38;2.35;;;;;;;9.48;96.50;99657.16;5012420;28;20054;-76
2021/11/01 05:07:03;;;;;;;14.88;2.65;;;;;;;9.49;96.17;99663.31;5011646;28;20125;-76
2021/11/01 05:09:48;;;;;;;11.38;2.10;;;;;;;9.39;96.15;99663.28;5014726;28;20030;-76
2021/11/01 05:14:58;;;;;;;15.35;2.35;;;;;;;9.30;96.04;99659.78;5015460;28;20033;-75
2021/11/01 05:17:50;;;;;;;9.18;2.00;;;;;;;9.28;96.34;99665.03;5009426;28;20025;-75
2021/11/01 05:25:22;;;;;;;10.80;1.80;;;;;;;9.19;96.37;99681.59;5015486;28;20042;-76
2021/11/01 05:27:56;;;;;;;12.48;1.73;;;;;;;9.20;96.54;99685.13;5014396;28;20049;-77
2021/11/01 05:30:35;;;;;;;;;;;;;;;9.17;96.42;99685.09;5016940;28;20045;-76
2021/11/01 05:33:20;;;;;;;14.93;2.35;;;;;;;9.19;96.24;99686.84;5015383;28;20494;-77
2021/11/01 05:35:46;;;;;;;10.52;1.40;;;;;;;9.15;96.76;99686.84;5015898;28;20405;-75
2021/11/01 05:38:11;;;;;;;13.25;2.40;;;;;;;9.13;97.10;99707.84;5014444;28;20026;-75
2021/11/01 05:40:37;;;;;;;12.38;2.58;;;;;;;9.14;96.64;99683.34;5015061;28;20397;-76
2021/11/01 05:43:03;;;;;;;9.82;2.35;;;;;;;9.18;96.47;99684.22;5011178;28;20026;-77
2021/11/01 05:45:28;;;;;;;14.35;2.15;;;;;;;9.18;95.98;99690.34;5015075;28;20060;-76
2021/11/01 05:47:58;;;;;;;13.23;1.80;;;;;;;9.18;95.71;99705.22;5011902;28;20022;-77
2021/11/01 05:50:26;;;;;;;12.93;2.40;;;;;;;9.24;96.03;99695.63;5019038;28;20033;-77
2021/11/01 05:52:51;;;;;;;10.18;2.60;;;;;;;9.21;95.62;99685.13;5016504;28;20037;-77
2021/11/01 06:03:58;;;;;;;23.65;2.42;;;;;;;9.24;95.57;99694.75;5012433;28;20501;-76
2021/11/01 06:08:26;;;;;;;11.07;2.03;;;;;;;9.18;95.18;99692.97;5016387;28;20060;-77
2021/11/01 06:13:25;;;;;;;16.58;3.00;;;;;;;9.08;96.02;99699.06;5012178;28;20033;-77
2021/11/01 06:13:37;;;;;;;10.10;1.88;;;;;;;9.11;95.75;99705.22;5017860;28;20500;-75
2021/11/01 06:16:03;;;;;;;9.13;1.48;;;;;;;9.09;95.89;99708.72;5015479;28;20022;-76
2021/11/01 06:21:00;;;;;;;11.02;1.73;;;;;;;9.10;95.75;99703.47;5012924;28;20033;-77
2021/11/01 06:23:25;;;;;;;9.23;2.10;;;;;;;9.09;95.97;99712.19;5012206;28;20029;-77
2021/11/01 06:25:51;;;;;;;11.48;1.75;;;;;;;9.07;95.50;99713.91;5020169;28;20037;-77
2021/11/01 06:28:18;;;;;;;15.43;2.28;;;;;;;9.10;95.72;99713.06;5015151;28;20391;-77
2021/11/01 06:30:51;;;;;;;11.98;2.22;;;;;;;9.11;95.25;99715.72;5013082;28;20026;-77
2021/11/01 06:41:44;;;;;;;11.35;1.98;;;;;;;9.11;95.54;99730.56;5014612;28;20041;-77
2021/11/01 06:44:42;;;;;;;7.68;2.05;;;;;;;9.10;95.84;99729.69;5011098;28;20025;-75
2021/11/01 06:57:44;;;;;;;9.70;1.80;;;;;;;8.93;99.10;99741.88;5013220;28;20036;-76
2021/11/01 07:17:20;;;;;;;12.57;2.05;;;;;;;9.16;97.07;99738.47;5017933;28;20038;-76
2021/11/01 07:25:13;;;;;;;9.93;1.75;;;;;;;9.26;95.05;99729.75;5016150;28;20034;-78
2021/11/01 08:22:02;;;;;;;5.65;1.35;;;;;;;9.72;90.62;99786.81;5016277;28;20143;-76
2021/11/01 08:25:26;;;;;;;7.30;1.55;;;;;;;9.74;90.86;99775.44;5015994;28;20036;-76
2021/11/01 09:03:32;;;;;;;;;;;;;;;11.61;81.55;99777.00;5017574;28;20044;-77
2021/11/01 09:09:46;;;;;;;6.60;1.77;;;;;;;11.63;80.17;99746.25;5017829;28;20506;-78
2021/11/01 09:26:36;;;;;;;8.65;1.65;;;;;;;11.84;79.03;99768.97;5018021;28;20386;-78
2021/11/01 09:37:28;;;;;;;2.92;1.10;;;;;;;12.04;75.92;99758.34;5017544;28;20073;-78
2021/11/01 09:42:48;;;;;;;6.63;1.23;;;;;;;12.44;73.56;99765.94;5015298;28;20221;-78
2021/11/01 09:45:14;;;;;;;8.52;1.35;;;;;;;12.57;73.42;99760.56;5014887;28;20117;-77
2021/11/01 09:47:43;;;;;;;5.55;1.00;;;;;;;12.76;72.85;99759.47;5016411;28;20525;-76
2021/11/01 09:50:10;;;;;;;7.18;0.88;;;;;;;12.97;71.83;99766.31;5016903;28;20033;-77
2021/11/01 09:52:35;;;;;;;5.55;1.13;;;;;;;13.21;71.55;99776.63;5017790;28;20029;-77
2021/11/01 09:55:15;;;;;;;6.05;1.13;;;;;;;13.28;71.34;99765.09;5015901;28;20026;-77
2021/11/01 09:59:10;;;;;;;5.22;1.15;;;;;;;13.22;70.13;99771.31;5022401;28;20080;-77
2021/11/01 10:00:26;;;;;;;4.20;0.90;;;;;;;13.39;69.82;99757.97;5010637;28;20034;-78
2021/11/01 10:02:51;;;;;;;4.30;1.00;;;;;;;13.41;69.48;99764.06;5016768;28;20033;-78
2021/11/01 10:05:24;;;;;;;2.90;0.70;;;;;;;13.77;69.06;99775.06;5019799;28;20395;-77
2021/11/01 10:07:50;;;;;;;3.92;1.35;;;;;;;13.96;66.33;99756.31;5013124;28;20114;-77
2021/11/01 10:10:16;;;;;;;5.13;1.00;;;;;;;14.21;66.62;99780.59;5012786;28;20116;-78
2021/11/01 10:12:44;;;;;;;4.60;1.10;;;;;;;14.33;65.57;99755.72;5012987;28;20030;-79
2021/11/01 10:17:56;;;;;;;4.07;1.00;;;;;;;14.59;66.04;99755.28;5013335;28;20037;-78
2021/11/01 10:20:21;;;;;;;4.70;1.10;;;;;;;14.96;63.86;99762.59;5013892;28;20112;-74
2021/11/01 10:22:47;;;;;;;4.57;1.30;;;;;;;14.78;62.90;99745.25;5013054;28;20046;-75
2021/11/01 10:25:18;;;;;;;4.53;1.20;;;;;;;14.79;63.45;99762.03;5016988;28;20455;-76
2021/11/01 10:27:56;;;;;;;6.18;1.40;;;;;;;15.40;62.63;99765.25;5021831;28;20505;-76
2021/11/01 10:30:32;;;;;;;4.88;1.23;;;;;;;15.08;61.62;99764.13;5020334;28;20029;-75
2021/11/01 10:32:59;;;;;;;6.93;1.10;;;;;;;15.44;60.77;99755.47;5011279;28;20028;-75
2021/11/01 10:35:31;;;;;;;2.35;0.80;;;;;;;15.81;59.62;99755.56;5015444;28;20083;-76
2021/11/01 10:38:14;;;;;;;6.20;1.17;;;;;;;15.64;59.72;99757.69;5015873;28;20041;-76
2021/11/01 11:11:00;;;;;;;4.72;1.17;;;;;;;16.49;56.37;99763.69;5020575;28;20041;-76
2021/11/01 11:13:31;;;;;;;3.50;0.90;;;;;;;16.64;55.25;99759.78;5013365;28;20417;-75
2021/11/01 11:15:58;;;;;;;4.43;0.80;;;;;;;16.71;54.94;99761.34;5021436;28;20056;-76
2021/11/01 11:21:21;;;;;;;7.78;1.15;;;;;;;16.54;55.40;99760.94;5020994;28;20045;-76
2021/11/01 11:38:10;;;;;;;7.45;1.00;;;;;;;17.73;51.32;99734.59;5021541;28;20032;-74
2021/11/01 11:49:15;;;;;;;3.85;1.10;;;;;;;17.67;51.56;99742.75;5013823;28;20448;-76
2021/11/01 11:52:03;;;;;;;5.55;1.10;;;;;;;17.68;52.61;99745.38;5014712;28;20101;-77
2021/11/01 11:54:32;;;;;;;3.75;1.00;;;;;;;17.48;51.98;99761.91;5014333;28;20061;-75
2021/11/01 11:57:03;;;;;;;4.07;0.90;;;;;;;16.80;53.45;99742.53;5008021;28;20018;-75
2021/11/01 11:59:38;;;;;;;6.43;1.35;;;;;;;16.28;54.20;99770.44;5012488;28;20034;-75
2021/11/01 12:02:07;;;;;;;6.60;1.17;;;;;;;16.48;55.47;99768.16;5012731;28;20038;-76
2021/11/01 12:04:36;;;;;;;3.95;1.42;;;;;;;17.12;53.49;99770.03;5018361;28;20565;-77
2021/11/01 12:07:09;;;;;;;4.47;1.23;;;;;;;17.52;52.39;99752.94;5011723;28;20497;-75
2021/11/01 12:09:41;;;;;;;3.33;1.17;;;;;;;17.60;50.75;99759.84;5026296;28;20030;-75
2021/11/01 12:17:25;;;;;;;5.05;1.13;;;;;;;18.86;48.91;99754.91;5015587;28;20033;-76
2021/11/01 12:19:50;;;;;;;5.32;1.30;;;;;;;18.47;49.12;99753.53;5010764;28;20076;-76
2021/11/01 12:22:27;;;;;;;7.22;1.27;;;;;;;18.32;48.91;99754.06;5013725;28;20025;-76
2021/11/01 12:24:55;;;;;;;4.50;1.40;;;;;;;18.26;49.20;99759.56;5014639;28;20454;-78
2021/11/01 12:27:20;;;;;;;2.90;0.82;;;;;;;17.02;51.05;99766.78;5015785;28;20048;-76
2021/11/01 12:29:47;;;;;;;4.82;1.30;;;;;;;17.44;50.63;99754.94;5015820;28;20105;-76
2021/11/01 12:32:13;;;;;;;3.08;0.90;;;;;;;16.58;51.79;99762.59;5011522;28;20059;-75
2021/11/01 12:35:07;;;;;;;5.28;1.17;;;;;;;16.09;53.66;99776.16;5008498;28;20029;-76
2021/11/01 12:37:37;;;;;;;5.20;0.88;;;;;;;15.76;54.75;99754.78;5015807;28;20381;-76
2021/11/01 12:40:32;;;;;;;2.92;0.80;;;;;;;15.77;56.07;99769.75;5013591;28;20331;-75
2021/11/01 12:43:29;;;;;;;5.15;1.02;;;;;;;16.12;54.93;99762.81;5017804;28;20073;-75
2021/11/01 12:57:19;;;;;;;2.90;0.93;;;;;;;14.26;60.10;99780.53;5019823;28;20008;-77
2021/11/01 12:59:47;;;;;;;1.17;0.70;;;;;;;14.17;61.44;99784.19;5023308;28;20037;-77
2021/11/01 13:02:35;;;;;;;7.13;1.05;;;;;;;13.99;62.64;99785.34;5022429;28;20049;-74
2021/11/01 13:05:12;;;;;;;3.88;1.23;;;;;;;13.89;63.26;99800.47;5012133;28;20022;-76
2021/11/01 13:10:13;;;;;;;4.45;1.02;;;;;;;13.57;65.59;99793.84;5016489;28;20030;-75
2021/11/01 13:18:05;;;;;;;3.60;0.98;;;;;;;13.62;65.86;99793.78;5020582;28;20045;-74
2021/11/01 13:20:31;;;;;;;7.25;1.58;;;;;;;13.30;66.00;99789.72;5023660;28;20029;-73
2021/11/01 13:23:00;;;;;;;6.93;0.85;;;;;;;13.20;66.69;99788.06;5019570;28;20030;-72
2021/11/01 13:36:48;;;;;;;9.10;1.85;;;;;;;13.98;66.04;99797.72;5016208;28;20029;-75
2021/11/01 13:39:28;;;;;;;10.25;1.35;;;;;;;13.67;67.35;99797.22;5019781;28;20466;-76
2021/11/01 13:41:54;;;;;;;3.50;1.48;;;;;;;13.65;68.15;99804.31;5013322;28;20392;-75
2021/11/01 13:44:26;;;;;;;5.80;1.17;;;;;;;13.48;68.24;99797.50;5020005;28;20060;-74
2021/11/01 13:47:01;;;;;;;7.70;1.45;;;;;;;13.55;67.29;99795.66;5021468;28;20096;-74
2021/11/01 13:49:32;;;;;;;6.60;1.38;;;;;;;13.53;68.30;99792.13;5015602;28;20048;-74
2021/11/01 13:55:03;;;;;;;7.75;1.27;;;;;;;13.78;67.29;99782.13;5016937;28;20045;-75
2021/11/01 13:57:32;;;;;;;7.18;1.23;;;;;;;13.69;66.75;99782.25;5015984;28;20465;-75
2021/11/01 14:00:19;;;;;;;8.35;1.10;;;;;;;13.55;67.64;99771.84;5016002;28;20371;-74
2021/11/01 14:11:16;;;;;;;7.95;1.20;;;;;;;13.80;65.53;99774.16;5016339;28;20053;-75
2021/11/01 14:18:59;;;;;;;4.10;0.93;;;;;;;13.48;66.38;99800.13;5017605;28;20037;-74
2021/11/01 14:35:06;;;;;;;4.30;0.98;;;;;;;12.99;67.58;99801.53;5018581;28;20390;-75
2021/11/01 15:18:27;;;;;;;;;;;;;;;11.39;75.30;99819.25;5014959;28;20122;-75
2021/11/01 15:20:58;;;;;;;5.38;1.08;;;;;;;11.45;75.19;99818.38;5013121;28;19956;-75
2021/11/01 15:26:49;;;;;;;5.07;0.80;;;;;;;11.38;77.58;99822.78;5017065;28;20060;-74
2021/11/01 15:39:33;;;;;;;4.28;0.80;;;;;;;11.34;79.66;99826.31;5010318;28;20460;-74
2021/11/01 16:19:54;;;;;;;1.67;0.65;;;;;;;10.44;81.33;99847.47;5010429;28;20064;-75
2021/11/01 16:22:20;;;;;;;1.67;0.70;;;;;;;10.38;81.49;99847.44;5015368;28;20507;-74
2021/11/01 16:24:48;;;;;;;0.98;0.55;;;;;;;10.38;81.65;99842.19;5012497;28;20164;-74
2021/11/01 16:27:14;;;;;;;0.95;0.60;;;;;;;10.35;81.38;99847.44;5013623;28;20042;-74
2021/11/01 16:34:55;;;;;;;2.30;0.77;;;;;;;10.18;81.31;99859.66;5017088;28;20030;-74
2021/11/01 16:37:45;;;;;;;1.02;0.40;;;;;;;10.16;81.38;99862.28;5014209;28;20024;-75
2021/11/01 16:40:13;;;;;;;1.38;0.43;;;;;;;10.12;81.33;99858.75;5009752;28;20128;-76
2021/11/01 16:42:41;;;;;;;2.72;0.85;;;;;;;10.12;81.53;99877.16;5015152;28;20022;-75
2021/11/01 16:45:11;;;;;;;2.58;0.60;;;;;;;10.08;81.67;99877.16;5015522;28;20049;-76
2021/11/01 16:47:39;;;;;;;2.17;0.85;;;;;;;10.04;81.69;99873.63;5014534;28;20143;-76
2021/11/01 16:50:08;;;;;;;3.10;0.60;;;;;;;9.97;81.68;99871.84;5016793;28;20059;-76
2021/11/01 16:52:33;;;;;;;1.05;0.57;;;;;;;9.95;82.20;99873.59;5016590;28;20096;-76
2021/11/01 16:55:03;;;;;;;0.68;0.50;;;;;;;9.87;81.80;99876.19;5017173;28;20396;-76
2021/11/01 16:57:40;;;;;;;0.68;0.60;;;;;;;9.85;82.60;99882.28;5017185;28;20025;-74
2021/11/01 17:00:31;;;;;;;2.40;0.60;;;;;;;9.87;82.61;99885.81;5016779;28;20079;-75
2021/11/01 17:03:14;;;;;;;2.38;0.80;;;;;;;9.78;82.65;99879.66;5016556;28;20038;-75
2021/11/01 17:21:16;;;;;;;3.65;0.70;;;;;;;9.70;83.14;99888.38;5015772;28;20045;-75
2021/11/01 17:22:25;;;;;;;2.08;0.90;;;;;;;9.49;85.75;99904.91;5015855;28;20095;-76
2021/11/01 17:24:59;;;;;;;3.30;1.13;;;;;;;9.48;85.88;99903.16;5026052;28;20036;-75
2021/11/01 17:27:42;;;;;;;2.50;1.00;;;;;;;9.43;86.54;99901.38;5023095;28;20053;-74
2021/11/01 18:36:50;;;;;;;15.63;3.20;;;;;;;8.93;94.62;99952.63;5018323;28;20041;-73
2021/11/01 18:39:18;;;;;;;9.70;3.17;;;;;;;8.91;94.33;99953.47;5015589;28;20037;-73
2021/11/01 18:41:56;;;;;;;5.85;3.22;;;;;;;8.93;94.78;99957.00;5018312;28;20028;-75
2021/11/01 18:44:59;;;;;;;4.93;2.50;;;;;;;8.91;94.42;99969.22;5018303;28;20033;-74
2021/11/01 18:53:09;;;;;;;4.25;2.63;;;;;;;8.85;94.57;99964.78;5028377;28;20044;-75
2021/11/01 18:55:36;;;;;;;4.70;2.30;;;;;;;8.86;94.49;99966.56;5017078;28;20034;-75
2021/11/01 18:58:03;;;;;;;3.70;2.13;;;;;;;8.86;94.40;99966.56;5016793;28;20374;-75
2021/11/01 19:00:33;;;;;;;3.45;1.70;;;;;;;8.89;94.40;99970.97;5021165;28;20029;-75
2021/11/01 19:03:00;;;;;;;3.53;2.10;;;;;;;8.82;94.38;99977.88;5012819;28;20057;-74
2021/11/01 19:05:42;;;;;;;2.22;2.00;;;;;;;8.84;94.36;99983.16;5014431;28;20029;-74
2021/11/01 20:06:01;;;;;;;5.72;1.88;;;;;;;8.55;92.81;99954.88;5006466;28;20084;-74
2021/11/01 21:25:52;;;;;;;4.13;2.00;;;;;;;7.98;94.71;99970.78;5016398;28;20064;-75
2021/11/01 21:28:18;;;;;;;4.22;2.13;;;;;;;7.99;94.67;99969.03;5027740;28;20156;-75
2021/11/01 21:30:43;;;;;;;7.97;2.90;;;;;;;7.96;94.46;99969.88;5020510;28;20029;-74
2021/11/01 21:33:13;;;;;;;5.57;2.60;;;;;;;7.94;94.99;99961.13;5017363;28;20483;-74
2021/11/01 21:35:48;;;;;;;4.05;2.45;;;;;;;7.92;94.96;99962.84;5016779;28;20033;-74
2021/11/01 21:38:15;;;;;;;7.45;3.05;;;;;;;7.89;95.31;99968.06;5014783;28;20493;-74
2021/11/01 21:40:48;;;;;;;5.32;2.50;;;;;;;7.87;95.20;99960.19;5015172;28;20034;-75
2021/11/01 21:43:13;;;;;;;2.77;2.30;;;;;;;7.85;95.56;99963.63;5014905;28;20025;-75
2021/11/01 21:45:39;;;;;;;3.47;2.60;;;;;;;7.83;95.21;99968.84;5016014;28;20045;-75
2021/11/01 21:48:05;;;;;;;7.88;2.92;;;;;;;7.81;95.59;99961.81;5014118;28;20104;-75
2021/11/01 21:50:30;;;;;;;13.15;2.92;;;;;;;7.76;95.83;99967.88;5013995;28;20121;-75
2021/11/01 21:52:59;;;;;;;7.97;3.13;;;;;;;7.75;95.77;99980.97;5014381;28;20033;-75
2021/11/01 21:55:26;;;;;;;5.45;2.70;;;;;;;7.78;95.71;99967.03;5014301;28;20026;-75
2021/11/01 21:57:57;;;;;;;7.68;2.63;;;;;;;7.78;95.44;99967.03;5013975;28;20045;-75
2021/11/01 22:25:18;;;;;;;5.10;3.00;;;;;;;7.58;97.15;99963.28;5013802;28;20044;-74
2021/11/01 22:38:17;;;;;;;8.13;3.30;;;;;;;7.48;97.93;99961.38;5010127;28;20092;-74
2021/11/01 22:40:44;;;;;;;7.25;4.00;;;;;;;7.43;98.35;99968.25;5013094;28;20076;-74
2021/11/01 22:43:53;;;;;;;7.00;3.80;;;;;;;7.40;98.52;99974.34;5012674;28;20021;-75
2021/11/01 22:55:31;;;;;;;;;;;;;;;7.38;98.84;99970.84;5011459;28;20136;-74
2021/11/01 22:57:06;;;;;;;7.95;4.03;;;;;;;7.27;99.57;99972.41;5005998;28;20111;-75
2021/11/01 22:59:31;;;;;;;7.38;3.95;;;;;;;7.29;99.83;99959.34;5012122;28;20033;-74
2021/11/01 23:01:57;;;;;;;9.68;4.38;;;;;;;7.27;99.98;99961.94;5010431;28;20088;-74
2021/11/01 23:31:25;;;;;;;6.75;4.45;;;;;;;7.24;100.00;99961.88;5013449;28;20036;-74
2021/11/01 23:32:02;;;;;;;6.90;5.07;;;;;;;7.12;100.00;99945.97;5011346;28;20060;-74
2021/11/01 23:34:29;;;;;;;10.68;6.07;;;;;;;7.08;100.00;99950.28;5012825;28;20131;-73
2021/11/01 23:36:56;;;;;;;8.93;5.18;;;;;;;7.09;100.00;99950.31;5014426;28;20017;-73
2021/11/01 23:39:22;;;;;;;8.43;5.78;;;;;;;7.08;100.00;99945.03;5013253;28;20479;-74
2021/11/01 23:41:48;;;;;;;9.45;6.05;;;;;;;7.11;100.00;99949.44;5017336;28;20032;-74